sensor_id;sensor_type;location;lat;lon;timestamp;temperature;humidity
18794;DHT22;29610;49.022;12.114;2024-01-30T00:01:47;-1.50;99.90
18794;DHT22;29610;49.022;12.114;2024-01-30T00:04:16;-1.60;99.90
18794;DHT22;29610;49.022;12.114;2024-01-30T00:06:44;-1.70;99.90
18794;DHT22;29610;49.022;12.114;2024-01-30T00:09:13;-1.80;99.90
18794;DHT22;29610;49.022;12.114;2024-01-30T00:11:42;-1.90;99.90
18794;DHT22;29610;49.022;12.114;2024-01-30T00:14:10;-1.90;99.90
18794;DHT22;29610;49.022;12.114;2024-01-30T00:16:39;-2.00;99.90
18794;DHT22;29610;49.022;12.114;2024-01-30T00:19:08;-2.10;99.90
18794;DHT22;29610;49.022;12.114;2024-01-30T00:21:36;-2.10;99.90
18794;DHT22;29610;49.022;12.114;2024-01-30T00:24:05;-2.00;99.90
18794;DHT22;29610;49.022;12.114;2024-01-30T00:26:33;-2.00;99.90
18794;DHT22;29610;49.022;12.114;2024-01-30T00:29:02;-2.00;99.90
18794;DHT22;29610;49.022;12.114;2024-01-30T00:31:30;-2.00;99.90
18794;DHT22;29610;49.022;12.114;2024-01-30T00:33:59;-1.90;99.90
18794;DHT22;29610;49.022;12.114;2024-01-30T00:36:29;-1.70;99.90
18794;DHT22;29610;49.022;12.114;2024-01-30T00:38:58;-1.70;99.90
18794;DHT22;29610;49.022;12.114;2024-01-30T00:41:26;-1.70;99.90
18794;DHT22;29610;49.022;12.114;2024-01-30T00:43:55;-1.80;99.90
18794;DHT22;29610;49.022;12.114;2024-01-30T00:46:23;-1.90;99.90
18794;DHT22;29610;49.022;12.114;2024-01-30T00:48:51;-1.90;99.90
18794;DHT22;29610;49.022;12.114;2024-01-30T00:51:19;-2.00;99.90
18794;DHT22;29610;49.022;12.114;2024-01-30T00:53:49;-1.30;99.90
18794;DHT22;29610;49.022;12.114;2024-01-30T00:56:19;-2.00;99.90
18794;DHT22;29610;49.022;12.114;2024-01-30T00:58:50;-1.80;99.90
18794;DHT22;29610;49.022;12.114;2024-01-30T01:01:19;-1.80;99.90
18794;DHT22;29610;49.022;12.114;2024-01-30T01:03:47;-1.80;99.90
18794;DHT22;29610;49.022;12.114;2024-01-30T01:06:17;-1.80;99.90
18794;DHT22;29610;49.022;12.114;2024-01-30T01:08:45;-1.80;99.90
18794;DHT22;29610;49.022;12.114;2024-01-30T01:11:15;-1.90;99.90
18794;DHT22;29610;49.022;12.114;2024-01-30T01:13:43;-2.00;99.90
18794;DHT22;29610;49.022;12.114;2024-01-30T01:16:12;-2.00;99.90
18794;DHT22;29610;49.022;12.114;2024-01-30T01:18:40;-2.10;99.90
18794;DHT22;29610;49.022;12.114;2024-01-30T01:21:09;-2.10;99.90
18794;DHT22;29610;49.022;12.114;2024-01-30T01:23:37;-2.20;99.90
18794;DHT22;29610;49.022;12.114;2024-01-30T01:26:05;-2.40;99.90
18794;DHT22;29610;49.022;12.114;2024-01-30T01:28:39;-2.40;99.90
18794;DHT22;29610;49.022;12.114;2024-01-30T01:31:08;-2.40;99.90
18794;DHT22;29610;49.022;12.114;2024-01-30T01:33:37;-2.40;99.90
18794;DHT22;29610;49.022;12.114;2024-01-30T01:36:06;-2.40;99.90
18794;DHT22;29610;49.022;12.114;2024-01-30T01:38:34;-2.40;99.90
18794;DHT22;29610;49.022;12.114;2024-01-30T01:41:02;-2.40;99.90
18794;DHT22;29610;49.022;12.114;2024-01-30T01:43:31;-2.40;99.90
18794;DHT22;29610;49.022;12.114;2024-01-30T01:46:00;-2.40;99.90
18794;DHT22;29610;49.022;12.114;2024-01-30T01:48:29;-2.50;99.90
18794;DHT22;29610;49.022;12.114;2024-01-30T01:50:57;-2.50;99.90
18794;DHT22;29610;49.022;12.114;2024-01-30T01:53:27;-2.60;99.90
18794;DHT22;29610;49.022;12.114;2024-01-30T01:55:55;-2.70;99.90
18794;DHT22;29610;49.022;12.114;2024-01-30T01:58:26;-2.70;99.90
18794;DHT22;29610;49.022;12.114;2024-01-30T02:00:59;-2.20;99.90
18794;DHT22;29610;49.022;12.114;2024-01-30T02:03:28;-2.70;99.90
18794;DHT22;29610;49.022;12.114;2024-01-30T02:05:57;-2.80;99.90
18794;DHT22;29610;49.022;12.114;2024-01-30T02:08:25;-2.80;99.90
18794;DHT22;29610;49.022;12.114;2024-01-30T02:10:54;-2.80;99.90
18794;DHT22;29610;49.022;12.114;2024-01-30T02:13:23;-2.80;99.90
18794;DHT22;29610;49.022;12.114;2024-01-30T02:15:51;-2.70;99.90
18794;DHT22;29610;49.022;12.114;2024-01-30T02:18:22;-2.70;99.90
18794;DHT22;29610;49.022;12.114;2024-01-30T02:21:12;-2.60;99.90
18794;DHT22;29610;49.022;12.114;2024-01-30T02:23:41;-2.70;99.90
18794;DHT22;29610;49.022;12.114;2024-01-30T02:26:11;-2.70;99.90
18794;DHT22;29610;49.022;12.114;2024-01-30T02:28:39;-2.80;99.90
18794;DHT22;29610;49.022;12.114;2024-01-30T02:31:07;-2.80;99.90
18794;DHT22;29610;49.022;12.114;2024-01-30T02:33:36;-2.90;99.90
18794;DHT22;29610;49.022;12.114;2024-01-30T02:36:07;-3.00;99.90
18794;DHT22;29610;49.022;12.114;2024-01-30T02:38:37;-1.90;99.90
18794;DHT22;29610;49.022;12.114;2024-01-30T02:41:05;-3.00;99.90
18794;DHT22;29610;49.022;12.114;2024-01-30T02:43:33;-3.00;99.90
18794;DHT22;29610;49.022;12.114;2024-01-30T02:46:02;-3.00;99.90
18794;DHT22;29610;49.022;12.114;2024-01-30T02:48:30;-3.10;99.90
18794;DHT22;29610;49.022;12.114;2024-01-30T02:50:58;-3.00;99.90
18794;DHT22;29610;49.022;12.114;2024-01-30T02:53:26;-3.00;99.90
18794;DHT22;29610;49.022;12.114;2024-01-30T02:55:56;-3.00;99.90
18794;DHT22;29610;49.022;12.114;2024-01-30T02:58:24;-3.00;99.90
18794;DHT22;29610;49.022;12.114;2024-01-30T03:00:53;-3.10;99.90
18794;DHT22;29610;49.022;12.114;2024-01-30T03:03:21;-3.10;99.90
18794;DHT22;29610;49.022;12.114;2024-01-30T03:05:49;-3.10;99.90
18794;DHT22;29610;49.022;12.114;2024-01-30T03:08:17;-2.00;99.90
18794;DHT22;29610;49.022;12.114;2024-01-30T03:10:46;-3.10;99.90
18794;DHT22;29610;49.022;12.114;2024-01-30T03:13:15;-3.10;99.90
18794;DHT22;29610;49.022;12.114;2024-01-30T03:15:44;-3.10;99.90
18794;DHT22;29610;49.022;12.114;2024-01-30T03:18:12;-3.10;99.90
18794;DHT22;29610;49.022;12.114;2024-01-30T03:20:40;-3.10;99.90
18794;DHT22;29610;49.022;12.114;2024-01-30T03:23:09;-3.10;99.90
18794;DHT22;29610;49.022;12.114;2024-01-30T03:25:37;-3.10;99.90
18794;DHT22;29610;49.022;12.114;2024-01-30T03:28:05;-3.10;99.90
18794;DHT22;29610;49.022;12.114;2024-01-30T03:30:35;-3.10;99.90
18794;DHT22;29610;49.022;12.114;2024-01-30T03:33:04;-3.10;99.90
18794;DHT22;29610;49.022;12.114;2024-01-30T03:35:32;-3.10;99.90
18794;DHT22;29610;49.022;12.114;2024-01-30T03:38:00;-3.20;99.90
18794;DHT22;29610;49.022;12.114;2024-01-30T03:40:29;-3.20;99.90
18794;DHT22;29610;49.022;12.114;2024-01-30T03:42:57;-3.20;99.90
18794;DHT22;29610;49.022;12.114;2024-01-30T03:45:25;-3.20;99.90
18794;DHT22;29610;49.022;12.114;2024-01-30T03:47:55;-3.30;99.90
18794;DHT22;29610;49.022;12.114;2024-01-30T03:50:23;-3.30;99.90
18794;DHT22;29610;49.022;12.114;2024-01-30T03:52:52;-3.30;99.90
18794;DHT22;29610;49.022;12.114;2024-01-30T03:55:20;-3.30;99.90
18794;DHT22;29610;49.022;12.114;2024-01-30T03:57:48;-3.30;99.90
18794;DHT22;29610;49.022;12.114;2024-01-30T04:00:17;-3.30;99.90
18794;DHT22;29610;49.022;12.114;2024-01-30T04:02:45;-3.20;99.90
18794;DHT22;29610;49.022;12.114;2024-01-30T04:05:15;-3.20;99.90
18794;DHT22;29610;49.022;12.114;2024-01-30T04:07:43;-3.20;99.90
18794;DHT22;29610;49.022;12.114;2024-01-30T04:10:11;-3.20;99.90
18794;DHT22;29610;49.022;12.114;2024-01-30T04:12:40;-3.20;99.90
18794;DHT22;29610;49.022;12.114;2024-01-30T04:15:09;-3.30;99.90
18794;DHT22;29610;49.022;12.114;2024-01-30T04:17:37;-3.30;99.90
18794;DHT22;29610;49.022;12.114;2024-01-30T04:20:07;-3.30;99.90
18794;DHT22;29610;49.022;12.114;2024-01-30T04:22:37;-3.30;99.90
18794;DHT22;29610;49.022;12.114;2024-01-30T04:25:06;-3.20;99.90
18794;DHT22;29610;49.022;12.114;2024-01-30T04:27:34;-3.20;99.90
18794;DHT22;29610;49.022;12.114;2024-01-30T04:30:03;-3.20;99.90
18794;DHT22;29610;49.022;12.114;2024-01-30T04:32:32;-4.00;99.90
18794;DHT22;29610;49.022;12.114;2024-01-30T04:35:00;-3.30;99.90
18794;DHT22;29610;49.022;12.114;2024-01-30T04:37:32;-3.30;99.90
18794;DHT22;29610;49.022;12.114;2024-01-30T04:40:02;-3.20;99.90
18794;DHT22;29610;49.022;12.114;2024-01-30T04:42:32;-3.30;99.90
18794;DHT22;29610;49.022;12.114;2024-01-30T04:45:00;-3.30;99.90
18794;DHT22;29610;49.022;12.114;2024-01-30T04:47:29;-3.40;99.90
18794;DHT22;29610;49.022;12.114;2024-01-30T04:49:57;-3.40;99.90
18794;DHT22;29610;49.022;12.114;2024-01-30T04:52:26;-3.30;99.90
18794;DHT22;29610;49.022;12.114;2024-01-30T04:54:54;-3.40;99.90
18794;DHT22;29610;49.022;12.114;2024-01-30T04:57:24;-3.40;99.90
18794;DHT22;29610;49.022;12.114;2024-01-30T04:59:52;-3.50;99.90
18794;DHT22;29610;49.022;12.114;2024-01-30T05:02:20;-3.40;99.90
18794;DHT22;29610;49.022;12.114;2024-01-30T05:04:49;-3.40;99.90
18794;DHT22;29610;49.022;12.114;2024-01-30T05:07:17;-3.50;99.90
18794;DHT22;29610;49.022;12.114;2024-01-30T05:09:46;-3.50;99.90
18794;DHT22;29610;49.022;12.114;2024-01-30T05:12:14;-3.50;99.90
18794;DHT22;29610;49.022;12.114;2024-01-30T05:14:44;-3.50;99.90
18794;DHT22;29610;49.022;12.114;2024-01-30T05:17:12;-3.70;99.90
18794;DHT22;29610;49.022;12.114;2024-01-30T05:19:40;-3.80;99.90
18794;DHT22;29610;49.022;12.114;2024-01-30T05:22:09;-4.00;99.90
18794;DHT22;29610;49.022;12.114;2024-01-30T05:24:37;-4.00;99.90
18794;DHT22;29610;49.022;12.114;2024-01-30T05:27:06;-4.10;99.90
18794;DHT22;29610;49.022;12.114;2024-01-30T05:29:34;-4.00;99.90
18794;DHT22;29610;49.022;12.114;2024-01-30T05:32:04;-3.90;99.90
18794;DHT22;29610;49.022;12.114;2024-01-30T05:34:33;-4.00;99.90
18794;DHT22;29610;49.022;12.114;2024-01-30T05:37:01;-4.10;99.90
18794;DHT22;29610;49.022;12.114;2024-01-30T05:39:30;-4.20;99.90
18794;DHT22;29610;49.022;12.114;2024-01-30T05:41:59;-4.20;99.90
18794;DHT22;29610;49.022;12.114;2024-01-30T05:44:28;-4.20;99.90
18794;DHT22;29610;49.022;12.114;2024-01-30T05:46:56;-4.10;99.90
18794;DHT22;29610;49.022;12.114;2024-01-30T05:49:26;-4.10;99.90
18794;DHT22;29610;49.022;12.114;2024-01-30T05:51:54;-4.00;99.90
18794;DHT22;29610;49.022;12.114;2024-01-30T05:54:23;-4.00;99.90
18794;DHT22;29610;49.022;12.114;2024-01-30T05:56:51;-4.10;99.90
18794;DHT22;29610;49.022;12.114;2024-01-30T05:59:18;-4.20;99.90
18794;DHT22;29610;49.022;12.114;2024-01-30T06:01:46;-4.20;99.90
18794;DHT22;29610;49.022;12.114;2024-01-30T06:04:15;-4.20;99.90
18794;DHT22;29610;49.022;12.114;2024-01-30T06:06:45;-3.90;99.90
18794;DHT22;29610;49.022;12.114;2024-01-30T06:09:13;-3.70;99.90
18794;DHT22;29610;49.022;12.114;2024-01-30T06:11:41;-3.70;99.90
18794;DHT22;29610;49.022;12.114;2024-01-30T06:14:10;-2.70;99.90
18794;DHT22;29610;49.022;12.114;2024-01-30T06:16:38;-3.60;99.90
18794;DHT22;29610;49.022;12.114;2024-01-30T06:19:06;-3.50;99.90
18794;DHT22;29610;49.022;12.114;2024-01-30T06:21:34;-3.30;99.90
18794;DHT22;29610;49.022;12.114;2024-01-30T06:24:06;-3.30;99.90
18794;DHT22;29610;49.022;12.114;2024-01-30T06:26:35;-3.20;99.90
18794;DHT22;29610;49.022;12.114;2024-01-30T06:29:04;-3.10;99.90
18794;DHT22;29610;49.022;12.114;2024-01-30T06:31:32;-2.90;99.90
18794;DHT22;29610;49.022;12.114;2024-01-30T06:34:00;-2.90;99.90
18794;DHT22;29610;49.022;12.114;2024-01-30T06:36:29;-2.90;99.90
18794;DHT22;29610;49.022;12.114;2024-01-30T06:38:57;-2.90;99.90
18794;DHT22;29610;49.022;12.114;2024-01-30T06:41:26;-3.00;99.90
18794;DHT22;29610;49.022;12.114;2024-01-30T06:43:55;-2.90;99.90
18794;DHT22;29610;49.022;12.114;2024-01-30T06:46:23;-2.90;99.90
18794;DHT22;29610;49.022;12.114;2024-01-30T06:48:51;-2.90;99.90
18794;DHT22;29610;49.022;12.114;2024-01-30T06:51:19;-2.90;99.90
18794;DHT22;29610;49.022;12.114;2024-01-30T06:53:48;-2.80;99.90
18794;DHT22;29610;49.022;12.114;2024-01-30T06:56:16;-2.80;99.90
18794;DHT22;29610;49.022;12.114;2024-01-30T06:58:49;-2.80;99.90
18794;DHT22;29610;49.022;12.114;2024-01-30T07:01:17;-2.90;99.90
18794;DHT22;29610;49.022;12.114;2024-01-30T07:03:46;-2.90;99.90
18794;DHT22;29610;49.022;12.114;2024-01-30T07:06:14;-2.80;99.90
18794;DHT22;29610;49.022;12.114;2024-01-30T07:08:42;-2.70;99.90
18794;DHT22;29610;49.022;12.114;2024-01-30T07:11:11;-2.60;99.90
18794;DHT22;29610;49.022;12.114;2024-01-30T07:13:46;-2.50;99.90
18794;DHT22;29610;49.022;12.114;2024-01-30T07:16:16;-2.40;99.90
18794;DHT22;29610;49.022;12.114;2024-01-30T07:18:45;-2.30;99.90
18794;DHT22;29610;49.022;12.114;2024-01-30T07:21:13;-2.20;99.90
18794;DHT22;29610;49.022;12.114;2024-01-30T07:23:42;-2.10;99.90
18794;DHT22;29610;49.022;12.114;2024-01-30T07:26:11;-2.00;99.90
18794;DHT22;29610;49.022;12.114;2024-01-30T07:28:39;-1.90;99.90
18794;DHT22;29610;49.022;12.114;2024-01-30T07:31:08;-1.90;99.90
18794;DHT22;29610;49.022;12.114;2024-01-30T07:33:37;-1.80;99.90
18794;DHT22;29610;49.022;12.114;2024-01-30T07:36:06;-1.70;99.90
18794;DHT22;29610;49.022;12.114;2024-01-30T07:38:34;-1.60;99.90
18794;DHT22;29610;49.022;12.114;2024-01-30T07:41:03;-1.60;99.90
18794;DHT22;29610;49.022;12.114;2024-01-30T07:43:31;-1.40;99.90
18794;DHT22;29610;49.022;12.114;2024-01-30T07:46:00;-1.80;99.90
18794;DHT22;29610;49.022;12.114;2024-01-30T07:48:29;-1.30;99.90
18794;DHT22;29610;49.022;12.114;2024-01-30T07:51:00;-1.20;99.90
18794;DHT22;29610;49.022;12.114;2024-01-30T07:53:30;-1.10;99.90
18794;DHT22;29610;49.022;12.114;2024-01-30T07:55:58;-1.00;99.90
18794;DHT22;29610;49.022;12.114;2024-01-30T07:58:27;-1.00;99.90
18794;DHT22;29610;49.022;12.114;2024-01-30T08:00:55;-0.90;99.90
18794;DHT22;29610;49.022;12.114;2024-01-30T08:03:25;-0.80;99.90
18794;DHT22;29610;49.022;12.114;2024-01-30T08:05:54;-0.70;99.90
18794;DHT22;29610;49.022;12.114;2024-01-30T08:08:23;-0.70;99.90
18794;DHT22;29610;49.022;12.114;2024-01-30T08:10:52;-0.60;99.90
18794;DHT22;29610;49.022;12.114;2024-01-30T08:13:20;-0.50;99.90
18794;DHT22;29610;49.022;12.114;2024-01-30T08:15:49;-0.40;99.90
18794;DHT22;29610;49.022;12.114;2024-01-30T08:18:17;-0.30;99.90
18794;DHT22;29610;49.022;12.114;2024-01-30T08:20:45;-0.30;99.90
18794;DHT22;29610;49.022;12.114;2024-01-30T08:23:13;-0.20;99.90
18794;DHT22;29610;49.022;12.114;2024-01-30T08:25:43;-0.10;99.90
18794;DHT22;29610;49.022;12.114;2024-01-30T08:28:11;-0.10;99.90
18794;DHT22;29610;49.022;12.114;2024-01-30T08:30:39;0.00;99.90
18794;DHT22;29610;49.022;12.114;2024-01-30T08:33:08;0.10;99.90
18794;DHT22;29610;49.022;12.114;2024-01-30T08:35:36;0.10;99.90
18794;DHT22;29610;49.022;12.114;2024-01-30T08:38:05;0.20;99.90
18794;DHT22;29610;49.022;12.114;2024-01-30T08:40:33;0.30;99.90
18794;DHT22;29610;49.022;12.114;2024-01-30T08:43:03;0.40;99.90
18794;DHT22;29610;49.022;12.114;2024-01-30T08:45:31;0.50;99.90
18794;DHT22;29610;49.022;12.114;2024-01-30T08:48:00;0.60;99.90
18794;DHT22;29610;49.022;12.114;2024-01-30T08:50:28;0.70;99.90
18794;DHT22;29610;49.022;12.114;2024-01-30T08:52:56;0.70;99.90
18794;DHT22;29610;49.022;12.114;2024-01-30T08:55:24;0.80;99.90
18794;DHT22;29610;49.022;12.114;2024-01-30T08:57:53;0.90;99.90
18794;DHT22;29610;49.022;12.114;2024-01-30T09:00:22;1.00;99.90
18794;DHT22;29610;49.022;12.114;2024-01-30T09:02:51;1.10;99.90
18794;DHT22;29610;49.022;12.114;2024-01-30T09:05:19;1.20;99.90
18794;DHT22;29610;49.022;12.114;2024-01-30T09:07:47;1.20;99.90
18794;DHT22;29610;49.022;12.114;2024-01-30T09:10:16;1.20;99.90
18794;DHT22;29610;49.022;12.114;2024-01-30T09:12:47;1.20;99.90
18794;DHT22;29610;49.022;12.114;2024-01-30T09:15:16;1.30;99.90
18794;DHT22;29610;49.022;12.114;2024-01-30T09:17:45;1.30;99.90
18794;DHT22;29610;49.022;12.114;2024-01-30T09:20:14;1.40;99.90
18794;DHT22;29610;49.022;12.114;2024-01-30T09:22:42;1.40;99.90
18794;DHT22;29610;49.022;12.114;2024-01-30T09:25:11;1.50;99.90
18794;DHT22;29610;49.022;12.114;2024-01-30T09:27:39;1.60;99.90
18794;DHT22;29610;49.022;12.114;2024-01-30T09:30:08;1.80;99.90
18794;DHT22;29610;49.022;12.114;2024-01-30T09:32:37;1.90;99.90
18794;DHT22;29610;49.022;12.114;2024-01-30T09:35:07;1.90;99.90
18794;DHT22;29610;49.022;12.114;2024-01-30T09:37:36;1.90;99.90
18794;DHT22;29610;49.022;12.114;2024-01-30T09:40:06;1.80;99.90
18794;DHT22;29610;49.022;12.114;2024-01-30T09:42:36;1.80;99.90
18794;DHT22;29610;49.022;12.114;2024-01-30T09:45:05;1.90;99.90
18794;DHT22;29610;49.022;12.114;2024-01-30T09:47:38;1.90;99.90
18794;DHT22;29610;49.022;12.114;2024-01-30T09:50:11;2.00;99.90
18794;DHT22;29610;49.022;12.114;2024-01-30T09:52:41;2.10;99.90
18794;DHT22;29610;49.022;12.114;2024-01-30T09:55:11;2.20;99.90
18794;DHT22;29610;49.022;12.114;2024-01-30T09:57:41;2.10;99.90
18794;DHT22;29610;49.022;12.114;2024-01-30T10:00:11;2.20;99.90
18794;DHT22;29610;49.022;12.114;2024-01-30T10:02:40;2.30;99.90
18794;DHT22;29610;49.022;12.114;2024-01-30T10:05:11;2.50;99.90
18794;DHT22;29610;49.022;12.114;2024-01-30T10:07:52;2.60;99.90
18794;DHT22;29610;49.022;12.114;2024-01-30T10:10:22;2.80;99.90
18794;DHT22;29610;49.022;12.114;2024-01-30T10:12:51;2.80;99.90
18794;DHT22;29610;49.022;12.114;2024-01-30T10:15:19;2.80;99.90
18794;DHT22;29610;49.022;12.114;2024-01-30T10:17:48;3.00;99.90
18794;DHT22;29610;49.022;12.114;2024-01-30T10:20:18;3.00;99.90
18794;DHT22;29610;49.022;12.114;2024-01-30T10:22:49;3.00;99.90
18794;DHT22;29610;49.022;12.114;2024-01-30T10:25:18;3.00;99.90
18794;DHT22;29610;49.022;12.114;2024-01-30T10:27:46;3.20;99.90
18794;DHT22;29610;49.022;12.114;2024-01-30T10:30:15;3.30;99.90
18794;DHT22;29610;49.022;12.114;2024-01-30T10:32:44;3.40;99.90
18794;DHT22;29610;49.022;12.114;2024-01-30T10:35:12;3.40;99.90
18794;DHT22;29610;49.022;12.114;2024-01-30T10:37:43;3.50;99.90
18794;DHT22;29610;49.022;12.114;2024-01-30T10:40:13;3.50;99.90
18794;DHT22;29610;49.022;12.114;2024-01-30T10:42:45;3.50;99.90
18794;DHT22;29610;49.022;12.114;2024-01-30T10:45:14;3.60;99.90
18794;DHT22;29610;49.022;12.114;2024-01-30T10:47:45;3.70;99.90
18794;DHT22;29610;49.022;12.114;2024-01-30T10:50:16;3.80;99.90
18794;DHT22;29610;49.022;12.114;2024-01-30T10:52:46;3.90;99.90
18794;DHT22;29610;49.022;12.114;2024-01-30T10:55:16;4.00;99.90
18794;DHT22;29610;49.022;12.114;2024-01-30T10:57:46;4.00;99.90
18794;DHT22;29610;49.022;12.114;2024-01-30T11:00:15;4.00;99.90
18794;DHT22;29610;49.022;12.114;2024-01-30T11:02:45;4.00;99.90
18794;DHT22;29610;49.022;12.114;2024-01-30T11:05:15;4.00;99.90
18794;DHT22;29610;49.022;12.114;2024-01-30T11:07:56;4.20;99.90
18794;DHT22;29610;49.022;12.114;2024-01-30T11:10:25;4.20;99.70
18794;DHT22;29610;49.022;12.114;2024-01-30T11:12:53;4.00;99.20
18794;DHT22;29610;49.022;12.114;2024-01-30T11:15:24;4.10;99.70
18794;DHT22;29610;49.022;12.114;2024-01-30T11:17:53;4.10;99.20
18794;DHT22;29610;49.022;12.114;2024-01-30T11:20:22;4.30;99.40
18794;DHT22;29610;49.022;12.114;2024-01-30T11:22:56;4.60;99.30
18794;DHT22;29610;49.022;12.114;2024-01-30T11:25:25;4.80;98.90
18794;DHT22;29610;49.022;12.114;2024-01-30T11:27:55;5.00;98.20
18794;DHT22;29610;49.022;12.114;2024-01-30T11:30:24;5.10;98.20
18794;DHT22;29610;49.022;12.114;2024-01-30T11:33:06;5.30;97.60
18794;DHT22;29610;49.022;12.114;2024-01-30T11:35:37;6.00;97.70
18794;DHT22;29610;49.022;12.114;2024-01-30T11:38:10;5.50;96.50
18794;DHT22;29610;49.022;12.114;2024-01-30T11:40:39;5.70;97.00
18794;DHT22;29610;49.022;12.114;2024-01-30T11:43:09;5.70;96.50
18794;DHT22;29610;49.022;12.114;2024-01-30T11:45:37;5.70;96.20
18794;DHT22;29610;49.022;12.114;2024-01-30T11:48:07;5.80;96.10
18794;DHT22;29610;49.022;12.114;2024-01-30T11:50:38;5.80;95.70
18794;DHT22;29610;49.022;12.114;2024-01-30T11:53:09;5.80;95.60
18794;DHT22;29610;49.022;12.114;2024-01-30T11:55:38;6.00;95.70
18794;DHT22;29610;49.022;12.114;2024-01-30T11:58:07;6.00;95.50
18794;DHT22;29610;49.022;12.114;2024-01-30T12:00:35;6.10;95.80
18794;DHT22;29610;49.022;12.114;2024-01-30T12:03:04;6.30;95.20
18794;DHT22;29610;49.022;12.114;2024-01-30T12:05:34;6.40;95.30
18794;DHT22;29610;49.022;12.114;2024-01-30T12:08:03;6.50;94.90
18794;DHT22;29610;49.022;12.114;2024-01-30T12:10:34;6.60;94.40
18794;DHT22;29610;49.022;12.114;2024-01-30T12:13:02;6.50;94.60
18794;DHT22;29610;49.022;12.114;2024-01-30T12:15:31;6.50;94.60
18794;DHT22;29610;49.022;12.114;2024-01-30T12:18:06;6.60;94.20
18794;DHT22;29610;49.022;12.114;2024-01-30T12:20:35;6.40;93.90
18794;DHT22;29610;49.022;12.114;2024-01-30T12:23:04;6.30;94.30
18794;DHT22;29610;49.022;12.114;2024-01-30T12:25:34;6.30;94.10
18794;DHT22;29610;49.022;12.114;2024-01-30T12:28:03;6.30;94.40
18794;DHT22;29610;49.022;12.114;2024-01-30T12:30:34;6.30;94.10
18794;DHT22;29610;49.022;12.114;2024-01-30T12:33:03;6.50;94.20
18794;DHT22;29610;49.022;12.114;2024-01-30T12:35:34;6.80;93.90
18794;DHT22;29610;49.022;12.114;2024-01-30T12:38:12;7.10;93.20
18794;DHT22;29610;49.022;12.114;2024-01-30T12:40:43;7.20;92.80
18794;DHT22;29610;49.022;12.114;2024-01-30T12:43:13;7.30;92.30
18794;DHT22;29610;49.022;12.114;2024-01-30T12:45:58;7.40;92.30
18794;DHT22;29610;49.022;12.114;2024-01-30T12:48:28;7.40;91.90
18794;DHT22;29610;49.022;12.114;2024-01-30T12:50:57;7.40;92.40
18794;DHT22;29610;49.022;12.114;2024-01-30T12:53:25;7.50;92.20
18794;DHT22;29610;49.022;12.114;2024-01-30T12:55:55;7.40;92.10
18794;DHT22;29610;49.022;12.114;2024-01-30T12:58:24;7.40;92.00
18794;DHT22;29610;49.022;12.114;2024-01-30T13:00:54;7.30;91.90
18794;DHT22;29610;49.022;12.114;2024-01-30T13:03:23;7.20;91.80
18794;DHT22;29610;49.022;12.114;2024-01-30T13:05:51;7.20;91.80
18794;DHT22;29610;49.022;12.114;2024-01-30T13:08:20;7.40;92.10
18794;DHT22;29610;49.022;12.114;2024-01-30T13:10:49;7.30;91.80
18794;DHT22;29610;49.022;12.114;2024-01-30T13:13:19;7.40;91.50
18794;DHT22;29610;49.022;12.114;2024-01-30T13:15:48;7.20;91.60
18794;DHT22;29610;49.022;12.114;2024-01-30T13:18:16;7.10;91.80
18794;DHT22;29610;49.022;12.114;2024-01-30T13:20:45;7.10;91.80
18794;DHT22;29610;49.022;12.114;2024-01-30T13:23:13;7.00;91.70
18794;DHT22;29610;49.022;12.114;2024-01-30T13:25:41;7.10;92.00
18794;DHT22;29610;49.022;12.114;2024-01-30T13:28:10;7.00;91.70
18794;DHT22;29610;49.022;12.114;2024-01-30T13:30:39;6.90;91.50
18794;DHT22;29610;49.022;12.114;2024-01-30T13:33:07;6.90;91.80
18794;DHT22;29610;49.022;12.114;2024-01-30T13:35:36;6.90;91.60
18794;DHT22;29610;49.022;12.114;2024-01-30T13:38:05;6.70;91.90
18794;DHT22;29610;49.022;12.114;2024-01-30T13:40:33;6.80;92.00
18794;DHT22;29610;49.022;12.114;2024-01-30T13:43:01;6.90;91.90
18794;DHT22;29610;49.022;12.114;2024-01-30T13:45:30;7.00;91.70
18794;DHT22;29610;49.022;12.114;2024-01-30T13:47:59;6.90;91.70
18794;DHT22;29610;49.022;12.114;2024-01-30T13:50:27;6.90;91.90
18794;DHT22;29610;49.022;12.114;2024-01-30T13:52:56;6.70;91.70
18794;DHT22;29610;49.022;12.114;2024-01-30T13:55:26;6.70;92.20
18794;DHT22;29610;49.022;12.114;2024-01-30T13:57:55;6.30;92.40
18794;DHT22;29610;49.022;12.114;2024-01-30T14:00:24;6.40;92.60
18794;DHT22;29610;49.022;12.114;2024-01-30T14:02:53;6.40;92.60
18794;DHT22;29610;49.022;12.114;2024-01-30T14:05:24;6.50;92.70
18794;DHT22;29610;49.022;12.114;2024-01-30T14:07:54;6.50;92.60
18794;DHT22;29610;49.022;12.114;2024-01-30T14:10:22;6.40;92.60
18794;DHT22;29610;49.022;12.114;2024-01-30T14:12:50;6.50;92.60
18794;DHT22;29610;49.022;12.114;2024-01-30T14:15:19;6.40;92.90
18794;DHT22;29610;49.022;12.114;2024-01-30T14:17:55;6.60;92.80
18794;DHT22;29610;49.022;12.114;2024-01-30T14:20:27;6.60;92.60
18794;DHT22;29610;49.022;12.114;2024-01-30T14:22:55;6.60;92.70
18794;DHT22;29610;49.022;12.114;2024-01-30T14:25:24;6.70;92.60
18794;DHT22;29610;49.022;12.114;2024-01-30T14:27:52;6.70;92.60
18794;DHT22;29610;49.022;12.114;2024-01-30T14:30:21;6.70;92.60
18794;DHT22;29610;49.022;12.114;2024-01-30T14:32:49;6.60;92.70
18794;DHT22;29610;49.022;12.114;2024-01-30T14:35:18;6.40;92.70
18794;DHT22;29610;49.022;12.114;2024-01-30T14:37:48;6.20;92.70
18794;DHT22;29610;49.022;12.114;2024-01-30T14:40:17;6.00;93.00
18794;DHT22;29610;49.022;12.114;2024-01-30T14:42:46;5.80;93.30
18794;DHT22;29610;49.022;12.114;2024-01-30T14:45:15;5.50;93.60
18794;DHT22;29610;49.022;12.114;2024-01-30T14:47:44;5.40;93.80
18794;DHT22;29610;49.022;12.114;2024-01-30T14:50:14;5.30;94.10
18794;DHT22;29610;49.022;12.114;2024-01-30T14:52:43;5.20;94.20
18794;DHT22;29610;49.022;12.114;2024-01-30T14:55:13;5.00;94.40
18794;DHT22;29610;49.022;12.114;2024-01-30T14:57:42;5.00;94.60
18794;DHT22;29610;49.022;12.114;2024-01-30T15:00:13;4.90;94.80
18794;DHT22;29610;49.022;12.114;2024-01-30T15:02:42;4.80;94.90
18794;DHT22;29610;49.022;12.114;2024-01-30T15:05:11;4.80;95.10
18794;DHT22;29610;49.022;12.114;2024-01-30T15:07:40;4.70;95.20
18794;DHT22;29610;49.022;12.114;2024-01-30T15:10:09;4.70;95.20
18794;DHT22;29610;49.022;12.114;2024-01-30T15:12:39;4.70;95.30
18794;DHT22;29610;49.022;12.114;2024-01-30T15:15:08;4.60;95.40
18794;DHT22;29610;49.022;12.114;2024-01-30T15:17:38;4.60;95.30
18794;DHT22;29610;49.022;12.114;2024-01-30T15:20:07;4.50;95.30
18794;DHT22;29610;49.022;12.114;2024-01-30T15:22:36;4.40;95.40
18794;DHT22;29610;49.022;12.114;2024-01-30T15:25:07;4.30;95.60
18794;DHT22;29610;49.022;12.114;2024-01-30T15:27:35;4.20;95.70
18794;DHT22;29610;49.022;12.114;2024-01-30T15:30:06;4.00;95.80
18794;DHT22;29610;49.022;12.114;2024-01-30T15:32:35;4.00;96.00
18794;DHT22;29610;49.022;12.114;2024-01-30T15:35:04;3.90;96.10